Time;durP1;ratioP1;P1;durP2;ratioP2;P2;SDS_P1;SDS_P2;PMS_P1;PMS_P2;Temp;Humidity;BMP_temperature;BMP_pressure;BME280_temperature;BME280_humidity;BME280_pressure;Samples;Min_cycle;Max_cycle;Signal;HPM_P1;HPM_P2
2021/12/09 00:00:29;;;;;;;35.00;20.73;;;;;;;1.06;85.57;94747.97;5108348;28;20043;-73
2021/12/09 00:02:57;;;;;;;36.88;20.48;;;;;;;1.09;85.59;94752.72;5109067;28;20135;-73
2021/12/09 00:05:24;;;;;;;39.30;21.70;;;;;;;1.15;85.40;94753.41;5108255;28;20143;-73
2021/12/09 00:07:52;;;;;;;34.08;20.33;;;;;;;1.19;85.40;94755.22;5108655;28;20035;-73
2021/12/09 00:10:19;;;;;;;34.75;20.50;;;;;;;1.23;85.20;94761.56;5108077;28;20055;-71
2021/12/09 00:12:46;;;;;;;32.15;19.98;;;;;;;1.25;84.98;94762.09;5108970;28;20046;-74
2021/12/09 00:15:13;;;;;;;36.85;20.50;;;;;;;1.26;84.78;94777.06;5108339;28;20700;-73
2021/12/09 00:17:40;;;;;;;36.85;21.35;;;;;;;1.26;84.80;94771.72;5108693;28;20048;-72
2021/12/09 00:20:10;;;;;;;32.63;20.05;;;;;;;1.27;84.83;94784.03;5108147;28;20675;-73
2021/12/09 00:22:37;;;;;;;36.20;20.40;;;;;;;1.28;84.67;94790.97;5108757;28;20051;-73
2021/12/09 00:25:05;;;;;;;36.42;21.42;;;;;;;1.29;84.53;94792.56;5107942;28;20054;-73
2021/12/09 00:27:31;;;;;;;35.20;21.13;;;;;;;1.35;84.72;94779.06;5108242;28;20113;-71
2021/12/09 00:29:59;;;;;;;39.28;21.77;;;;;;;1.39;84.54;94769.31;5108388;28;20748;-72
2021/12/09 00:32:25;;;;;;;39.53;21.70;;;;;;;1.45;84.42;94768.13;5107858;28;20430;-72
2021/12/09 00:34:52;;;;;;;36.70;21.38;;;;;;;1.43;84.49;94759.59;5108626;28;20075;-73
2021/12/09 00:37:26;;;;;;;37.08;21.02;;;;;;;1.40;84.37;94760.97;5107774;28;20059;-73
2021/12/09 00:39:53;;;;;;;36.45;20.98;;;;;;;1.39;84.47;94761.28;5108734;27;20526;-72
2021/12/09 00:42:22;;;;;;;34.60;19.75;;;;;;;1.38;84.32;94754.31;5128491;27;20059;-72
2021/12/09 00:44:49;;;;;;;33.90;19.98;;;;;;;1.41;83.97;94759.06;5128790;27;20529;-71
2021/12/09 00:47:15;;;;;;;33.58;20.13;;;;;;;1.36;83.77;94767.22;5128068;27;20537;-71
2021/12/09 00:49:42;;;;;;;32.45;19.80;;;;;;;1.26;83.93;94776.28;5128446;27;20043;-71
2021/12/09 00:52:08;;;;;;;34.20;19.55;;;;;;;1.22;84.26;94780.66;5128154;27;20136;-72
2021/12/09 00:54:38;;;;;;;31.67;19.25;;;;;;;1.21;84.53;94774.50;5128308;27;20104;-71
2021/12/09 00:57:05;;;;;;;35.45;20.50;;;;;;;1.22;84.84;94777.97;5126706;27;20051;-70
2021/12/09 00:59:32;;;;;;;36.20;20.58;;;;;;;1.23;84.70;94777.66;5126984;27;20047;-71
2021/12/09 01:01:58;;;;;;;37.42;20.25;;;;;;;1.20;84.71;94780.94;5127432;27;20528;-71
2021/12/09 01:04:25;;;;;;;41.67;20.33;;;;;;;1.17;85.19;94794.94;5128039;28;20054;-72
2021/12/09 01:06:51;;;;;;;35.35;19.77;;;;;;;1.17;85.38;94792.25;5128376;28;20783;-71
2021/12/09 01:09:18;;;;;;;33.17;19.50;;;;;;;1.15;85.60;94786.41;5127525;28;20662;-73
2021/12/09 01:11:46;;;;;;;36.63;20.65;;;;;;;1.13;85.72;94788.56;5107837;28;20051;-71
2021/12/09 01:14:13;;;;;;;36.17;19.30;;;;;;;1.09;86.00;94803.66;5107338;28;20411;-71
2021/12/09 01:16:40;;;;;;;38.90;20.08;;;;;;;1.09;86.27;94803.66;5107875;28;20470;-72
2021/12/09 01:19:07;;;;;;;36.63;20.00;;;;;;;1.07;86.22;94803.16;5107056;28;20044;-71
2021/12/09 01:21:33;;;;;;;30.45;19.52;;;;;;;1.07;86.60;94810.41;5107850;28;20055;-73
2021/12/09 01:24:00;;;;;;;33.67;19.27;;;;;;;1.06;86.68;94819.56;5107773;28;20051;-72
2021/12/09 01:26:28;;;;;;;36.22;19.98;;;;;;;1.01;86.69;94813.19;5107324;28;20470;-71
2021/12/09 01:29:00;;;;;;;34.88;20.45;;;;;;;1.02;86.98;94803.25;5107252;28;20046;-71
2021/12/09 01:31:30;;;;;;;34.70;20.13;;;;;;;1.02;86.98;94787.16;5107402;28;20047;-71
2021/12/09 01:34:01;;;;;;;33.42;20.30;;;;;;;1.00;87.05;94789.38;5107653;28;20533;-71
2021/12/09 01:36:28;;;;;;;34.80;20.42;;;;;;;0.97;86.96;94773.88;5107500;28;20047;-71
2021/12/09 01:38:55;;;;;;;35.88;21.13;;;;;;;0.93;86.99;94768.28;5107660;28;20040;-71
2021/12/09 01:41:21;;;;;;;37.83;20.90;;;;;;;0.92;87.11;94773.94;5120435;28;20055;-71
2021/12/09 01:43:49;;;;;;;42.30;23.40;;;;;;;0.92;87.09;94761.34;5128212;28;20043;-72
2021/12/09 01:46:20;;;;;;;46.85;24.52;;;;;;;0.91;87.33;94764.31;5127803;28;20051;-71
2021/12/09 01:48:48;;;;;;;44.58;23.05;;;;;;;0.92;87.50;94779.31;5128013;28;20155;-71
2021/12/09 01:51:15;;;;;;;45.00;24.20;;;;;;;0.89;87.88;94785.25;5127655;28;20044;-71
2021/12/09 01:53:41;;;;;;;51.85;26.33;;;;;;;0.88;87.92;94789.03;5128141;28;20050;-70
2021/12/09 01:56:10;;;;;;;48.30;25.60;;;;;;;0.92;87.95;94787.34;5127594;28;20051;-71
2021/12/09 01:58:37;;;;;;;53.08;25.05;;;;;;;0.96;88.04;94786.47;5127861;28;20528;-72
2021/12/09 02:01:05;;;;;;;45.15;24.10;;;;;;;1.01;87.75;94790.94;5123941;28;20043;-71
2021/12/09 02:03:34;;;;;;;46.72;24.08;;;;;;;1.02;87.58;94797.91;5127949;28;20050;-71
2021/12/09 02:06:01;;;;;;;46.33;22.42;;;;;;;1.04;87.37;94799.19;5127734;28;20055;-71
2021/12/09 02:08:27;;;;;;;44.10;22.73;;;;;;;1.08;87.37;94795.91;5127573;28;20054;-72
2021/12/09 02:10:54;;;;;;;45.42;23.10;;;;;;;1.06;87.48;94798.09;5114691;28;20074;-72
2021/12/09 02:13:21;;;;;;;48.00;22.48;;;;;;;1.09;87.71;94803.66;5109271;28;20058;-72
2021/12/09 02:15:51;;;;;;;49.15;23.48;;;;;;;1.07;87.41;94805.84;5111363;28;20067;-71
2021/12/09 02:18:18;;;;;;;53.13;24.67;;;;;;;1.09;87.77;94805.53;5110159;28;20101;-71
2021/12/09 02:20:46;;;;;;;52.50;23.40;;;;;;;1.08;87.74;94804.75;5110542;28;20051;-72
2021/12/09 02:23:16;;;;;;;50.53;22.95;;;;;;;1.11;87.76;94809.53;5105633;28;20666;-71
2021/12/09 02:25:44;;;;;;;48.88;23.95;;;;;;;1.12;87.68;94803.06;5090319;28;20051;-72
2021/12/09 02:28:11;;;;;;;49.63;22.95;;;;;;;1.11;87.50;94806.06;5089608;28;20055;-71
2021/12/09 02:30:37;;;;;;;53.22;23.73;;;;;;;1.05;87.75;94808.03;5090240;28;20054;-72
2021/12/09 02:33:04;;;;;;;51.35;23.05;;;;;;;1.03;87.84;94815.56;5089819;28;20048;-71
2021/12/09 02:35:30;;;;;;;46.92;22.38;;;;;;;1.03;87.95;94810.19;5090367;28;20048;-72
2021/12/09 02:37:58;;;;;;;46.50;23.23;;;;;;;1.01;88.13;94817.75;5089939;28;20040;-72
2021/12/09 02:40:25;;;;;;;50.83;22.65;;;;;;;0.97;88.04;94806.03;5082797;28;20055;-73
2021/12/09 02:42:51;;;;;;;50.47;22.80;;;;;;;0.94;88.31;94807.41;5069885;28;20043;-72
2021/12/09 02:45:18;;;;;;;50.50;22.48;;;;;;;0.97;88.42;94811.38;5069405;28;20056;-72
2021/12/09 02:47:44;;;;;;;52.67;23.25;;;;;;;0.99;88.59;94803.84;5069672;28;20052;-72
2021/12/09 02:50:11;;;;;;;46.08;22.48;;;;;;;1.01;88.57;94801.66;5069607;28;20056;-71
2021/12/09 02:52:38;;;;;;;43.92;22.33;;;;;;;1.05;88.49;94800.00;5069779;28;20056;-71
2021/12/09 02:55:08;;;;;;;45.20;23.00;;;;;;;1.06;88.41;94804.25;5069608;28;20091;-71
2021/12/09 02:57:34;;;;;;;54.17;24.20;;;;;;;1.08;88.13;94807.44;5069464;28;20053;-72
2021/12/09 03:00:01;;;;;;;53.45;23.40;;;;;;;1.06;88.21;94820.34;5069746;28;20060;-72
2021/12/09 03:02:27;;;;;;;44.95;22.35;;;;;;;1.13;88.02;94815.38;5069205;28;20048;-72
2021/12/09 03:04:58;;;;;;;42.22;21.52;;;;;;;1.12;87.65;94819.16;5069661;28;20052;-72
2021/12/09 03:07:28;;;;;;;40.75;20.83;;;;;;;1.09;87.47;94819.75;5068743;28;20044;-72
2021/12/09 03:09:59;;;;;;;37.85;19.50;;;;;;;1.05;87.71;94824.13;5071536;28;20044;-74
2021/12/09 03:12:30;;;;;;;35.58;19.75;;;;;;;0.99;87.87;94831.47;5069008;28;20044;-72
2021/12/09 03:14:57;;;;;;;34.40;18.75;;;;;;;0.93;87.98;94837.19;5069312;28;20071;-72
2021/12/09 03:17:24;;;;;;;36.15;18.60;;;;;;;0.91;88.24;94834.00;5068276;28;20045;-71
2021/12/09 03:19:51;;;;;;;38.35;19.73;;;;;;;0.91;88.66;94834.00;5069056;28;20051;-72
2021/12/09 03:22:18;;;;;;;37.95;19.75;;;;;;;0.96;88.91;94837.41;5068981;28;20045;-72
2021/12/09 03:24:45;;;;;;;39.17;19.85;;;;;;;1.02;88.67;94846.13;5085366;28;20040;-72
2021/12/09 03:27:11;;;;;;;40.33;19.48;;;;;;;1.03;88.39;94855.78;5088670;28;20060;-72
2021/12/09 03:29:40;;;;;;;34.35;18.05;;;;;;;0.99;88.39;94862.78;5089287;28;20059;-72
2021/12/09 03:32:11;;;;;;;35.53;19.52;;;;;;;0.98;88.39;94866.56;5088989;28;20068;-72
2021/12/09 03:34:40;;;;;;;34.47;17.85;;;;;;;1.00;88.24;94869.78;5089008;28;20633;-72
2021/12/09 03:37:11;;;;;;;33.20;17.45;;;;;;;0.99;88.38;94878.88;5088421;28;20055;-71
2021/12/09 03:39:39;;;;;;;33.45;17.63;;;;;;;0.94;88.50;94874.44;5113160;27;20055;-71
2021/12/09 03:42:11;;;;;;;35.78;19.10;;;;;;;0.92;88.53;94867.75;5129385;27;20584;-72
2021/12/09 03:44:38;;;;;;;34.63;18.38;;;;;;;0.89;88.54;94873.69;5116262;27;20048;-72
2021/12/09 03:47:08;;;;;;;42.13;19.45;;;;;;;0.85;88.68;94868.13;5126257;27;20055;-72
2021/12/09 03:49:34;;;;;;;37.13;17.52;;;;;;;0.86;88.84;94867.03;5129664;27;20051;-72
2021/12/09 03:52:01;;;;;;;37.85;17.92;;;;;;;0.84;88.95;94863.88;5129856;27;20055;-72
2021/12/09 03:54:28;;;;;;;36.85;18.10;;;;;;;0.83;89.13;94858.78;5129372;27;20050;-72
2021/12/09 03:56:55;;;;;;;46.05;18.85;;;;;;;0.77;89.15;94861.53;5129297;27;20549;-72
2021/12/09 03:59:21;;;;;;;38.22;18.17;;;;;;;0.74;89.26;94864.81;5128925;27;20055;-71
2021/12/09 04:01:48;;;;;;;38.72;17.15;;;;;;;0.69;89.62;94864.09;5129559;27;20039;-73
2021/12/09 04:04:16;;;;;;;38.40;17.52;;;;;;;0.65;89.77;94863.09;5128866;27;20423;-71
2021/12/09 04:06:43;;;;;;;36.40;17.85;;;;;;;0.68;89.94;94878.56;5129160;27;20047;-71
2021/12/09 04:09:12;;;;;;;36.30;17.13;;;;;;;0.63;90.05;94884.81;5128784;27;20051;-71
2021/12/09 04:11:39;;;;;;;38.42;17.60;;;;;;;0.65;90.01;94890.66;5129497;27;20047;-71
2021/12/09 04:14:06;;;;;;;39.25;17.08;;;;;;;0.63;89.83;94886.72;5127607;27;20039;-71
2021/12/09 04:16:34;;;;;;;40.58;17.95;;;;;;;0.61;89.89;94881.63;5108082;27;20043;-72
2021/12/09 04:19:01;;;;;;;42.22;18.70;;;;;;;0.61;90.04;94884.28;5108531;28;20521;-72
2021/12/09 04:21:28;;;;;;;42.58;18.40;;;;;;;0.62;90.14;94875.16;5108204;28;20539;-72
2021/12/09 04:23:55;;;;;;;40.97;18.60;;;;;;;0.65;90.01;94868.44;5108384;28;20066;-72
2021/12/09 04:26:22;;;;;;;41.80;18.40;;;;;;;0.65;90.09;94873.81;5107801;28;20059;-72
2021/12/09 04:28:48;;;;;;;47.13;19.30;;;;;;;0.59;89.98;94866.94;5108402;28;20055;-72
2021/12/09 04:31:16;;;;;;;43.70;19.30;;;;;;;0.61;90.33;94868.22;5108072;28;20498;-72
2021/12/09 04:33:43;;;;;;;44.38;18.00;;;;;;;0.59;90.28;94865.06;5108375;28;20101;-72
2021/12/09 04:36:10;;;;;;;46.15;19.30;;;;;;;0.60;90.41;94877.34;5107958;28;20498;-71
2021/12/09 04:38:38;;;;;;;42.65;18.45;;;;;;;0.61;90.45;94876.25;5108143;28;20048;-72
2021/12/09 04:41:05;;;;;;;47.13;19.20;;;;;;;0.63;90.46;94866.06;5107874;28;20489;-71
2021/12/09 04:43:31;;;;;;;44.90;20.30;;;;;;;0.62;90.30;94863.66;5108568;28;20066;-72
2021/12/09 04:45:59;;;;;;;48.17;18.52;;;;;;;0.62;90.40;94877.06;5107790;27;20063;-72
2021/12/09 04:48:26;;;;;;;46.15;19.95;;;;;;;0.61;90.42;94878.94;5107347;28;20039;-72
2021/12/09 04:50:52;;;;;;;46.88;20.35;;;;;;;0.63;90.26;94881.34;5108143;28;20051;-72
2021/12/09 04:53:19;;;;;;;55.03;21.52;;;;;;;0.63;90.47;94882.16;5107595;28;20109;-72
2021/12/09 04:55:47;;;;;;;48.92;20.65;;;;;;;0.63;90.23;94882.16;5108499;28;20053;-72
2021/12/09 04:58:13;;;;;;;52.13;20.65;;;;;;;0.64;90.13;94882.94;5107256;28;20051;-72
2021/12/09 05:00:40;;;;;;;48.53;19.73;;;;;;;0.63;90.01;94903.56;5108205;28;20055;-72
2021/12/09 05:03:09;;;;;;;56.97;21.88;;;;;;;0.61;90.07;94903.06;5107589;28;20042;-72
2021/12/09 05:05:39;;;;;;;57.63;21.42;;;;;;;0.66;90.08;94912.91;5108196;28;20130;-72
2021/12/09 05:08:07;;;;;;;52.22;20.80;;;;;;;0.66;89.80;94908.34;5107039;28;20050;-74
2021/12/09 05:10:49;;;;;;;48.78;20.42;;;;;;;0.67;89.84;94915.28;5108099;28;20048;-72
2021/12/09 05:13:18;;;;;;;47.42;19.90;;;;;;;0.72;89.50;94917.88;5107221;28;20219;-71
2021/12/09 05:15:45;;;;;;;39.30;17.80;;;;;;;0.72;89.46;94917.88;5107748;28;20052;-72
2021/12/09 05:18:12;;;;;;;39.90;17.25;;;;;;;0.73;89.40;94919.50;5106966;28;20051;-72
2021/12/09 05:20:39;;;;;;;40.65;17.92;;;;;;;0.74;89.16;94926.44;5108187;28;20047;-72
2021/12/09 05:23:05;;;;;;;37.28;16.90;;;;;;;0.73;89.14;94932.91;5107021;28;20064;-72
2021/12/09 05:25:32;;;;;;;33.97;16.10;;;;;;;0.69;89.20;94942.59;5108068;28;20047;-72
2021/12/09 05:27:59;;;;;;;39.75;16.95;;;;;;;0.73;89.45;94953.50;5107360;28;20629;-74
2021/12/09 05:30:38;;;;;;;38.03;16.77;;;;;;;0.75;89.32;94954.81;5107283;28;20048;-72
2021/12/09 05:33:04;;;;;;;32.42;15.82;;;;;;;0.75;89.26;94960.19;5106871;28;20682;-72
2021/12/09 05:35:30;;;;;;;32.75;16.30;;;;;;;0.74;89.14;94971.19;5107909;28;20048;-72
2021/12/09 05:37:57;;;;;;;35.33;16.23;;;;;;;0.74;88.99;94980.03;5107219;28;20043;-72
2021/12/09 05:40:24;;;;;;;30.00;15.13;;;;;;;0.73;89.10;94982.97;5107282;28;20056;-72
2021/12/09 05:42:50;;;;;;;31.13;15.57;;;;;;;0.73;89.23;94983.81;5107589;28;20044;-72
2021/12/09 05:45:17;;;;;;;33.58;16.00;;;;;;;0.76;89.30;95003.84;5106164;28;20048;-72
2021/12/09 05:47:45;;;;;;;31.35;15.88;;;;;;;0.77;89.24;95006.22;5109080;28;20437;-72
2021/12/09 05:50:12;;;;;;;35.13;17.10;;;;;;;0.78;89.06;95007.03;5110990;28;20070;-71
2021/12/09 05:52:39;;;;;;;35.05;15.65;;;;;;;0.81;89.34;95011.81;5111420;28;20070;-72
2021/12/09 05:55:06;;;;;;;38.05;17.17;;;;;;;0.85;89.44;95018.19;5110898;28;20052;-72
2021/12/09 05:57:32;;;;;;;35.58;16.88;;;;;;;0.84;88.79;95026.53;5111161;28;20051;-71
2021/12/09 06:00:00;;;;;;;32.50;16.33;;;;;;;0.84;89.06;95029.22;5111417;28;20052;-72
2021/12/09 06:02:27;;;;;;;34.80;15.98;;;;;;;0.84;89.16;95023.84;5111093;28;20521;-72
2021/12/09 06:04:55;;;;;;;33.00;16.90;;;;;;;0.85;89.04;95022.78;5111276;28;20096;-72
2021/12/09 06:07:21;;;;;;;36.00;16.63;;;;;;;0.83;89.03;95031.06;5110372;28;20055;-72
2021/12/09 06:09:48;;;;;;;30.98;15.57;;;;;;;0.81;88.99;95027.09;5111197;28;20058;-72
2021/12/09 06:12:14;;;;;;;34.92;16.25;;;;;;;0.83;89.22;95030.28;5110618;28;20055;-71
2021/12/09 06:14:41;;;;;;;37.10;17.17;;;;;;;0.82;89.24;95031.38;5110663;27;20722;-72
2021/12/09 06:17:08;;;;;;;35.88;16.60;;;;;;;0.80;89.18;95028.19;5110090;28;20047;-71
2021/12/09 06:19:34;;;;;;;33.22;15.63;;;;;;;0.80;89.40;95033.56;5110594;28;20043;-72
2021/12/09 06:22:02;;;;;;;30.60;15.88;;;;;;;0.77;89.31;95027.66;5110680;28;20070;-71
2021/12/09 06:24:29;;;;;;;32.80;15.48;;;;;;;0.75;89.41;95019.13;5110465;28;20047;-71
2021/12/09 06:26:56;;;;;;;28.35;14.05;;;;;;;0.71;89.70;95018.09;5110639;28;20555;-72
2021/12/09 06:29:22;;;;;;;27.13;14.95;;;;;;;0.69;89.89;95019.50;5109982;28;20055;-73
2021/12/09 06:31:49;;;;;;;32.55;15.00;;;;;;;0.66;89.97;95012.03;5110674;28;20054;-72
2021/12/09 06:34:15;;;;;;;32.85;15.55;;;;;;;0.65;90.36;95008.53;5110090;28;20051;-72
2021/12/09 06:36:43;;;;;;;32.28;15.45;;;;;;;0.65;90.47;95005.88;5110580;28;20049;-71
2021/12/09 06:39:12;;;;;;;33.65;16.30;;;;;;;0.65;90.65;95005.88;5109577;28;20505;-71
2021/12/09 06:41:39;;;;;;;31.80;15.95;;;;;;;0.65;90.60;95013.13;5110752;28;20046;-71
2021/12/09 06:44:06;;;;;;;32.08;15.98;;;;;;;0.65;90.67;95008.53;5109967;28;20059;-73
2021/12/09 06:46:33;;;;;;;29.95;14.93;;;;;;;0.65;90.55;95013.91;5109526;28;20516;-71
2021/12/09 06:49:00;;;;;;;27.65;14.52;;;;;;;0.67;90.82;95011.72;5110262;28;20720;-71
2021/12/09 06:51:26;;;;;;;31.60;15.82;;;;;;;0.66;90.55;95004.78;5110008;28;20040;-71
2021/12/09 06:53:53;;;;;;;25.95;14.45;;;;;;;0.66;90.42;95015.50;5110390;28;20066;-72
2021/12/09 06:56:21;;;;;;;28.17;14.23;;;;;;;0.64;90.74;95009.63;5109681;28;20406;-72
2021/12/09 06:58:48;;;;;;;25.25;13.57;;;;;;;0.62;90.87;95019.81;5108677;28;20425;-73
2021/12/09 07:01:15;;;;;;;24.40;13.15;;;;;;;0.61;90.99;95023.59;5109459;28;20043;-70
2021/12/09 07:03:41;;;;;;;25.42;13.25;;;;;;;0.59;90.96;95017.75;5110216;28;20456;-71
2021/12/09 07:06:11;;;;;;;24.65;13.35;;;;;;;0.57;91.11;95019.09;5109441;28;20426;-71
2021/12/09 07:08:44;;;;;;;22.63;13.07;;;;;;;0.54;91.43;95017.81;5109726;28;20063;-71
2021/12/09 07:11:11;;;;;;;27.25;13.27;;;;;;;0.54;91.62;95009.75;5109497;28;20043;-71
2021/12/09 07:13:39;;;;;;;27.17;14.25;;;;;;;0.55;91.96;95015.91;5109145;28;20051;-73
2021/12/09 07:16:05;;;;;;;25.23;13.55;;;;;;;0.56;91.83;95020.97;5108223;28;20074;-69
2021/12/09 07:18:32;;;;;;;24.33;13.60;;;;;;;0.56;91.84;95020.97;5109625;28;20046;-72
2021/12/09 07:20:59;;;;;;;23.63;13.25;;;;;;;0.56;91.70;95026.34;5109317;28;20411;-70
2021/12/09 07:23:25;;;;;;;22.83;12.40;;;;;;;0.58;91.76;95045.63;5108972;28;20063;-69
2021/12/09 07:25:52;;;;;;;23.35;12.40;;;;;;;0.59;91.69;95052.56;5109686;28;20043;-70
2021/12/09 07:28:18;;;;;;;21.75;11.70;;;;;;;0.59;91.62;95051.78;5108198;28;20047;-70
2021/12/09 07:30:46;;;;;;;20.67;11.13;;;;;;;0.57;91.64;95052.03;5109421;28;20047;-69
2021/12/09 07:33:13;;;;;;;20.02;11.60;;;;;;;0.58;91.59;95050.19;5108995;28;20047;-69
2021/12/09 07:35:40;;;;;;;19.92;11.43;;;;;;;0.58;91.70;95048.28;5109340;28;20051;-69
2021/12/09 07:38:07;;;;;;;19.20;11.50;;;;;;;0.57;91.69;95033.28;5108390;28;20132;-71
2021/12/09 07:40:34;;;;;;;21.38;11.52;;;;;;;0.58;91.96;95036.78;5109726;28;20050;-71
2021/12/09 07:43:01;;;;;;;17.00;9.95;;;;;;;0.58;92.01;95034.91;5109143;28;20130;-69
2021/12/09 07:45:28;;;;;;;21.00;11.88;;;;;;;0.60;92.07;95031.94;5115400;27;20061;-68
2021/12/09 07:47:56;;;;;;;19.17;11.07;;;;;;;0.65;92.20;95034.53;5129127;27;20051;-67
2021/12/09 07:50:24;;;;;;;21.52;11.70;;;;;;;0.66;91.98;95042.28;5127810;27;20460;-67
2021/12/09 07:52:52;;;;;;;21.77;11.43;;;;;;;0.69;92.07;95047.09;5109088;28;20059;-70
2021/12/09 07:55:20;;;;;;;20.63;11.20;;;;;;;0.70;91.65;95062.06;5108352;28;20056;-67
2021/12/09 07:57:47;;;;;;;22.10;12.05;;;;;;;0.73;91.71;95074.06;5108555;28;20074;-68
2021/12/09 08:00:17;;;;;;;22.10;11.90;;;;;;;0.74;91.51;95076.50;5108382;28;20553;-67
2021/12/09 08:02:44;;;;;;;18.85;11.02;;;;;;;0.76;91.31;95065.47;5109165;28;20054;-71
2021/12/09 08:05:13;;;;;;;20.45;10.85;;;;;;;0.74;91.01;95076.50;5108399;28;20047;-69
2021/12/09 08:07:41;;;;;;;21.95;10.50;;;;;;;0.75;91.37;95071.94;5107949;28;20048;-69
2021/12/09 08:10:09;;;;;;;19.58;11.52;;;;;;;0.74;91.15;95073.81;5108014;28;20055;-71
2021/12/09 08:12:36;;;;;;;17.50;10.32;;;;;;;0.74;91.17;95089.88;5108783;28;20429;-70
2021/12/09 08:15:03;;;;;;;19.33;10.90;;;;;;;0.74;91.12;95084.53;5113661;27;20069;-72
2021/12/09 08:17:57;;;;;;;21.30;10.65;;;;;;;0.76;91.32;95090.38;5128974;27;20414;-72
2021/12/09 08:20:25;;;;;;;19.48;10.63;;;;;;;0.74;91.32;95089.88;5128807;27;20100;-71
2021/12/09 08:22:51;;;;;;;19.45;10.48;;;;;;;0.78;91.39;95098.13;5128741;27;20124;-72
2021/12/09 08:25:18;;;;;;;17.77;10.02;;;;;;;0.80;91.26;95105.91;5128577;27;20074;-72
2021/12/09 08:27:45;;;;;;;20.05;11.50;;;;;;;0.83;91.41;95110.69;5128990;27;20065;-71
2021/12/09 08:30:14;;;;;;;19.05;10.93;;;;;;;0.85;91.22;95111.19;5128556;27;20269;-72
2021/12/09 08:32:41;;;;;;;16.73;10.05;;;;;;;0.85;91.21;95113.88;5129414;27;20047;-72
2021/12/09 08:35:08;;;;;;;21.75;11.32;;;;;;;0.84;91.09;95101.56;5128141;27;20054;-72
2021/12/09 08:37:36;;;;;;;20.27;11.52;;;;;;;0.84;91.10;95104.25;5128679;27;20090;-71
2021/12/09 08:40:04;;;;;;;22.48;10.63;;;;;;;0.84;91.28;95102.38;5127883;27;20043;-69
2021/12/09 08:42:31;;;;;;;21.08;10.75;;;;;;;0.85;91.13;95095.13;5128967;27;20055;-69
2021/12/09 08:44:58;;;;;;;21.25;11.60;;;;;;;0.87;90.97;95098.31;5123602;27;20047;-70
2021/12/09 08:47:24;;;;;;;22.73;11.02;;;;;;;0.87;90.96;95095.63;5107380;28;20564;-69
2021/12/09 08:49:51;;;;;;;22.27;11.90;;;;;;;0.92;90.89;95111.66;5108189;28;20537;-69
2021/12/09 08:52:17;;;;;;;20.92;11.07;;;;;;;0.94;91.06;95122.88;5087475;28;20058;-70
2021/12/09 08:54:45;;;;;;;23.05;12.15;;;;;;;0.94;90.74;95128.22;5087606;28;20052;-71
2021/12/09 08:57:12;;;;;;;20.85;11.13;;;;;;;0.97;90.94;95139.19;5086935;28;20052;-69
2021/12/09 08:59:38;;;;;;;23.48;11.23;;;;;;;0.99;90.83;95144.25;5087519;28;20746;-70
2021/12/09 09:02:05;;;;;;;21.05;10.52;;;;;;;0.96;90.59;95137.59;5087247;28;20051;-71
2021/12/09 09:04:32;;;;;;;18.25;10.45;;;;;;;0.88;90.87;95129.38;5087609;28;20580;-71
2021/12/09 09:07:00;;;;;;;20.35;10.68;;;;;;;0.85;91.18;95129.97;5087280;28;20052;-71
2021/12/09 09:09:33;;;;;;;20.67;10.18;;;;;;;0.84;91.40;95133.72;5087126;28;20434;-71
2021/12/09 09:12:01;;;;;;;17.42;9.13;;;;;;;0.82;91.75;95138.56;5087623;28;20048;-69
2021/12/09 09:14:27;;;;;;;18.75;10.27;;;;;;;0.78;92.07;95146.38;5087864;28;20454;-71
2021/12/09 09:16:54;;;;;;;19.92;9.70;;;;;;;0.75;92.38;95147.75;5107697;28;20051;-71
2021/12/09 09:19:21;;;;;;;21.83;10.00;;;;;;;0.75;92.35;95152.31;5107161;28;20051;-70
2021/12/09 09:21:47;;;;;;;18.63;9.88;;;;;;;0.74;92.70;95156.09;5107876;28;20047;-71
2021/12/09 09:24:14;;;;;;;18.00;9.90;;;;;;;0.72;92.89;95158.22;5110929;28;20573;-74
2021/12/09 09:26:41;;;;;;;23.02;10.85;;;;;;;0.73;92.81;95160.66;5111785;28;20039;-74
2021/12/09 09:29:10;;;;;;;19.23;9.90;;;;;;;0.72;92.91;95152.88;5111088;28;20120;-71
2021/12/09 09:31:39;;;;;;;17.27;8.93;;;;;;;0.72;92.98;95147.50;5111682;28;20059;-74
2021/12/09 09:34:06;;;;;;;19.55;10.07;;;;;;;0.72;93.07;95152.88;5111326;28;20554;-71
2021/12/09 09:36:33;;;;;;;19.67;10.35;;;;;;;0.73;93.22;95149.94;5111489;28;20096;-69
2021/12/09 09:39:16;;;;;;;16.75;8.90;;;;;;;0.71;93.34;95153.97;5111727;28;20112;-73
2021/12/09 09:41:45;;;;;;;21.02;10.13;;;;;;;0.73;93.27;95149.09;5111498;28;20040;-73
2021/12/09 09:44:15;;;;;;;19.85;9.77;;;;;;;0.76;93.36;95159.25;5111023;28;20047;-73
2021/12/09 09:46:42;;;;;;;18.00;10.23;;;;;;;0.73;93.31;95152.59;5111581;28;20044;-72
2021/12/09 09:49:09;;;;;;;16.35;9.32;;;;;;;0.74;93.33;95151.50;5110986;28;20055;-72
2021/12/09 09:51:37;;;;;;;17.58;9.07;;;;;;;0.77;93.28;95148.25;5111782;28;20055;-72
2021/12/09 09:54:05;;;;;;;17.55;9.30;;;;;;;0.74;93.21;95156.88;5111070;28;20051;-70
2021/12/09 09:56:34;;;;;;;17.17;9.15;;;;;;;0.76;93.48;95160.06;5111106;28;20043;-70
2021/12/09 09:59:04;;;;;;;15.82;8.35;;;;;;;0.78;93.32;95152.53;5111029;28;20043;-70
2021/12/09 10:01:34;;;;;;;15.25;8.43;;;;;;;0.77;93.39;95150.13;5111178;28;20050;-70
2021/12/09 10:04:11;;;;;;;16.48;9.07;;;;;;;0.74;93.34;95154.19;5111291;28;20135;-70
2021/12/09 10:06:39;;;;;;;15.73;8.07;;;;;;;0.77;93.56;95155.50;5110970;28;20067;-72
2021/12/09 10:09:07;;;;;;;16.10;9.02;;;;;;;0.76;93.42;95152.00;5110413;28;20047;-70
2021/12/09 10:11:34;;;;;;;15.75;8.70;;;;;;;0.74;93.48;95143.47;5111026;28;20051;-70
2021/12/09 10:14:10;;;;;;;16.35;8.85;;;;;;;0.73;93.67;95147.25;5110799;28;20044;-70
2021/12/09 10:16:41;;;;;;;17.00;9.23;;;;;;;0.77;93.72;95148.25;5110880;28;20046;-71
2021/12/09 10:19:16;;;;;;;16.90;9.35;;;;;;;0.81;93.54;95145.00;5110278;28;20046;-71
2021/12/09 10:21:43;;;;;;;15.98;9.07;;;;;;;0.80;93.51;95144.22;5111289;28;20127;-71
2021/12/09 10:24:10;;;;;;;19.50;9.40;;;;;;;0.82;93.32;95152.75;5109963;28;20043;-70
2021/12/09 10:26:39;;;;;;;17.50;9.25;;;;;;;0.81;93.44;95151.16;5110735;28;20039;-71
2021/12/09 10:29:11;;;;;;;18.27;9.73;;;;;;;0.82;93.48;95149.28;5109977;28;20055;-71
2021/12/09 10:31:48;;;;;;;18.10;9.57;;;;;;;0.82;93.58;95157.31;5110946;28;20402;-71
2021/12/09 10:34:32;;;;;;;18.52;9.77;;;;;;;0.86;93.67;95158.34;5110193;28;20074;-72
2021/12/09 10:37:15;;;;;;;22.35;10.85;;;;;;;0.86;93.76;95147.63;5110660;28;20699;-74
2021/12/09 10:39:48;;;;;;;20.58;10.30;;;;;;;0.89;93.73;95157.75;5108168;28;20573;-74
2021/12/09 10:42:17;;;;;;;18.88;10.82;;;;;;;0.94;93.58;95155.03;5109895;28;20055;-71
2021/12/09 10:44:53;;;;;;;21.88;10.77;;;;;;;0.99;93.19;95160.31;5110274;28;20047;-71
2021/12/09 10:47:36;;;;;;;21.55;11.45;;;;;;;0.94;93.22;95157.72;5109382;28;20048;-73
2021/12/09 10:50:10;;;;;;;24.50;12.48;;;;;;;0.92;93.41;95155.31;5110004;28;20108;-71
2021/12/09 10:52:43;;;;;;;24.17;11.60;;;;;;;0.90;93.62;95154.03;5109986;28;20057;-71
2021/12/09 10:55:22;;;;;;;20.25;11.00;;;;;;;0.92;94.04;95163.38;5110053;28;20055;-71
2021/12/09 10:57:58;;;;;;;24.63;11.40;;;;;;;0.96;93.83;95163.59;5109942;28;20051;-71
2021/12/09 11:00:32;;;;;;;23.60;12.38;;;;;;;1.00;93.56;95170.00;5109282;28;20055;-71
2021/12/09 11:03:06;;;;;;;22.00;11.45;;;;;;;1.04;93.41;95171.00;5126125;27;20052;-72
2021/12/09 11:05:35;;;;;;;23.60;12.07;;;;;;;1.05;93.34;95161.88;5128285;27;20043;-71
2021/12/09 11:08:33;;;;;;;26.55;12.10;;;;;;;1.10;93.08;95167.19;5129497;27;20105;-73
2021/12/09 11:11:05;;;;;;;21.40;11.65;;;;;;;1.05;92.82;95164.56;5072981;27;20043;-74
2021/12/09 11:13:47;;;;;;;22.20;11.40;;;;;;;1.06;92.80;95168.84;5130444;27;20062;-71
2021/12/09 11:16:23;;;;;;;20.73;11.93;;;;;;;1.09;93.02;95168.25;5113625;27;20051;-71
2021/12/09 11:18:52;;;;;;;22.88;11.75;;;;;;;1.09;92.95;95173.63;5109408;28;20586;-72
2021/12/09 11:21:21;;;;;;;23.00;11.40;;;;;;;1.08;92.83;95174.69;5109385;28;20134;-72
2021/12/09 11:23:54;;;;;;;22.17;11.25;;;;;;;1.11;92.93;95174.13;5109407;28;20112;-74
2021/12/09 11:26:39;;;;;;;25.48;12.15;;;;;;;1.13;92.59;95169.28;5108864;28;20717;-71
2021/12/09 11:29:10;;;;;;;24.73;13.02;;;;;;;1.10;92.68;95169.88;5108713;28;20077;-73
2021/12/09 11:31:50;;;;;;;27.50;11.73;;;;;;;1.11;92.70;95160.75;5109651;28;20043;-71